createdAt,value
2024-05-09T00:00:22.514Z,10.2870
2024-05-09T00:01:18.931Z,10.3233
2024-05-09T00:02:19.790Z,10.3862
2024-05-09T00:03:22.305Z,10.3693
2024-05-09T00:04:22.234Z,10.3483
2024-05-09T00:05:24.431Z,10.3966
2024-05-09T00:06:24.375Z,10.3840
2024-05-09T00:07:26.423Z,10.3697
2024-05-09T00:08:28.827Z,10.3561
2024-05-09T00:09:31.022Z,10.3361
2024-05-09T00:10:36.970Z,10.2921
2024-05-09T00:11:34.145Z,10.3080
2024-05-09T00:12:36.326Z,10.2706
2024-05-09T00:13:38.506Z,10.2440
2024-05-09T00:14:40.748Z,10.2482
2024-05-09T00:15:42.905Z,10.2440
2024-05-09T00:16:45.086Z,10.2208
2024-05-09T00:17:47.417Z,10.2016
2024-05-09T00:18:47.467Z,10.2057
2024-05-09T00:19:48.991Z,10.2226
2024-05-09T00:20:49.789Z,10.2344
2024-05-09T00:21:49.574Z,10.1645
2024-05-09T00:22:51.776Z,10.1594
2024-05-09T00:23:52.351Z,10.1841
2024-05-09T00:24:53.238Z,10.1530
2024-05-09T00:25:55.427Z,10.1480
2024-05-09T00:26:57.629Z,10.1409
2024-05-09T00:27:59.820Z,10.1025
2024-05-09T00:29:02.219Z,10.1106
2024-05-09T00:30:04.207Z,10.0776
2024-05-09T00:31:04.175Z,10.0855
2024-05-09T00:32:06.414Z,10.0766
2024-05-09T00:33:07.859Z,10.1051
2024-05-09T00:34:07.094Z,10.0852
2024-05-09T00:35:07.055Z,10.0704
2024-05-09T00:36:09.346Z,10.0387
2024-05-09T00:37:11.553Z,10.0427
2024-05-09T00:38:13.780Z,10.0463
2024-05-09T00:39:15.987Z,10.0564
2024-05-09T00:40:26.568Z,10.0587
2024-05-09T00:41:19.928Z,10.0256
2024-05-09T00:42:19.844Z,10.0526
2024-05-09T00:43:22.070Z,10.0487
2024-05-09T00:44:24.518Z,10.0198
2024-05-09T00:45:24.503Z,10.0596
2024-05-09T00:46:24.487Z,10.0219
2024-05-09T00:47:26.886Z,10.0493
2024-05-09T00:48:27.188Z,10.0619
2024-05-09T00:49:28.520Z,10.0521
2024-05-09T00:50:35.230Z,10.0486
2024-05-09T00:51:29.411Z,10.0897
2024-05-09T00:52:31.612Z,10.0957
2024-05-09T00:53:33.950Z,10.0932
2024-05-09T00:54:33.938Z,10.0877
2024-05-09T00:55:36.150Z,10.0629
2024-05-09T00:56:36.283Z,10.0809
2024-05-09T00:57:38.580Z,10.0517
2024-05-09T00:58:40.800Z,10.0673
2024-05-09T00:59:43.018Z,10.0790
2024-05-09T01:00:45.422Z,10.1072
2024-05-09T01:01:48.407Z,10.1031
2024-05-09T01:02:48.357Z,10.1065
2024-05-09T01:03:51.672Z,10.1314
2024-05-09T01:04:51.996Z,10.1208
2024-05-09T01:05:52.032Z,10.1017
2024-05-09T01:06:52.006Z,10.0966
2024-05-09T01:07:54.158Z,10.1492
2024-05-09T01:08:56.437Z,10.1527
2024-05-09T01:09:58.776Z,10.1599
2024-05-09T01:11:01.386Z,10.1692
2024-05-09T01:12:02.523Z,10.1832
2024-05-09T01:13:02.868Z,10.1945
2024-05-09T01:14:05.202Z,10.1963
2024-05-09T01:15:07.521Z,10.1896
2024-05-09T01:16:12.821Z,10.2002
2024-05-09T01:17:11.307Z,10.1884
2024-05-09T01:18:12.477Z,10.1818
2024-05-09T01:19:13.789Z,10.1798
2024-05-09T01:20:20.052Z,10.2305
2024-05-09T01:21:14.968Z,10.2324
2024-05-09T01:22:14.927Z,10.2140
2024-05-09T01:23:17.224Z,10.2346
2024-05-09T01:24:17.926Z,10.2785
2024-05-09T01:25:20.265Z,10.2696
2024-05-09T01:26:22.387Z,10.2215
2024-05-09T01:27:24.724Z,10.2346
2024-05-09T01:28:26.792Z,10.2215
2024-05-09T01:29:29.166Z,10.2224
2024-05-09T01:30:35.111Z,10.2115
2024-05-09T01:31:32.222Z,10.2222
2024-05-09T01:32:34.649Z,10.2398
2024-05-09T01:33:34.724Z,10.2465
2024-05-09T01:34:34.622Z,10.2330
2024-05-09T01:35:36.962Z,10.2492
2024-05-09T01:36:36.766Z,10.2662
2024-05-09T01:37:39.857Z,10.2794
2024-05-09T01:38:39.624Z,10.2837
2024-05-09T01:39:41.704Z,10.2446
2024-05-09T01:40:43.937Z,10.2549
2024-05-09T01:41:46.181Z,10.2485
2024-05-09T01:42:48.429Z,10.2719
2024-05-09T01:43:50.604Z,10.2797
2024-05-09T01:44:52.760Z,10.2426
2024-05-09T01:45:54.926Z,10.2488
2024-05-09T01:46:57.247Z,10.2588
2024-05-09T01:47:59.741Z,10.2895
2024-05-09T01:48:59.833Z,10.3062
2024-05-09T01:49:59.745Z,10.3120
2024-05-09T01:51:01.949Z,10.3056
2024-05-09T01:52:01.936Z,10.2690
2024-05-09T01:53:04.161Z,10.2729
2024-05-09T01:54:06.464Z,10.2659
2024-05-09T01:55:08.554Z,10.2527
2024-05-09T01:56:10.795Z,10.2902
2024-05-09T01:57:12.847Z,10.2729
2024-05-09T01:58:15.110Z,10.3414
2024-05-09T01:59:17.252Z,10.2884
2024-05-09T02:00:30.157Z,10.2696
2024-05-09T02:01:20.303Z,10.2868
2024-05-09T02:02:22.627Z,10.2756
2024-05-09T02:03:25.038Z,10.2875
2024-05-09T02:04:25.051Z,10.3208
2024-05-09T02:05:25.029Z,10.3268
2024-05-09T02:06:27.099Z,10.2901
2024-05-09T02:07:29.190Z,10.2844
2024-05-09T02:08:31.490Z,10.3146
2024-05-09T02:09:31.533Z,10.3060
2024-05-09T02:10:33.875Z,10.3051
2024-05-09T02:11:33.996Z,10.3073
2024-05-09T02:12:33.877Z,10.3055
2024-05-09T02:13:33.740Z,10.2994
2024-05-09T02:14:36.054Z,10.3023
2024-05-09T02:15:37.022Z,10.3343
2024-05-09T02:16:39.374Z,10.3792
2024-05-09T02:17:40.511Z,10.3636
2024-05-09T02:18:40.586Z,10.3578
2024-05-09T02:19:41.430Z,10.3553
2024-05-09T02:20:44.148Z,10.4014
2024-05-09T02:21:44.121Z,10.3899
2024-05-09T02:22:46.386Z,10.3790
2024-05-09T02:23:46.372Z,10.4028
2024-05-09T02:24:48.540Z,10.4300
2024-05-09T02:25:50.738Z,10.4192
2024-05-09T02:26:52.888Z,10.4330
2024-05-09T02:27:55.056Z,10.4167
2024-05-09T02:28:57.323Z,10.4094
2024-05-09T02:29:59.492Z,10.4761
2024-05-09T02:31:01.698Z,10.4610
2024-05-09T02:32:02.977Z,10.4579
2024-05-09T02:33:03.463Z,10.4583
2024-05-09T02:34:03.420Z,10.4644
2024-05-09T02:35:03.423Z,10.4643
2024-05-09T02:36:03.365Z,10.4768
2024-05-09T02:37:05.734Z,10.5023
2024-05-09T02:38:06.692Z,10.5198
2024-05-09T02:39:06.756Z,10.4879
2024-05-09T02:40:14.273Z,10.4993
2024-05-09T02:41:10.083Z,10.5190
2024-05-09T02:42:12.333Z,10.5318
2024-05-09T02:43:14.566Z,10.5629
2024-05-09T02:44:16.896Z,10.5608
2024-05-09T02:45:16.807Z,10.5578
2024-05-09T02:46:19.172Z,10.4786
2024-05-09T02:47:21.757Z,10.4725
2024-05-09T02:48:21.821Z,10.5165
2024-05-09T02:49:24.221Z,10.4790
2024-05-09T02:50:33.060Z,10.4740
2024-05-09T02:51:26.870Z,10.4525
2024-05-09T02:52:27.293Z,10.4718
2024-05-09T02:53:27.157Z,10.4865
2024-05-09T02:54:29.323Z,10.4914
2024-05-09T02:55:31.605Z,10.4652
2024-05-09T02:56:34.045Z,10.4577
2024-05-09T02:57:36.174Z,10.4369
2024-05-09T02:58:38.440Z,10.4700
2024-05-09T02:59:40.730Z,10.4686
2024-05-09T03:00:42.831Z,10.4242
2024-05-09T03:01:42.492Z,10.3941
2024-05-09T03:02:42.735Z,10.3707
2024-05-09T03:03:42.730Z,10.3905
2024-05-09T03:04:42.759Z,10.4188
2024-05-09T03:05:45.394Z,10.3898
2024-05-09T03:06:45.457Z,10.3996
2024-05-09T03:07:46.409Z,10.3827
2024-05-09T03:08:46.270Z,10.4269
2024-05-09T03:09:48.389Z,10.3980
2024-05-09T03:10:50.584Z,10.3907
2024-05-09T03:11:52.981Z,10.4125
2024-05-09T03:12:52.928Z,10.4149
2024-05-09T03:13:55.099Z,10.4385
2024-05-09T03:14:57.200Z,10.4013
2024-05-09T03:15:59.537Z,10.3772
2024-05-09T03:17:01.915Z,10.3967
2024-05-09T03:18:02.142Z,10.3638
2024-05-09T03:19:02.465Z,10.3630
2024-05-09T03:20:05.110Z,10.3379
2024-05-09T03:21:04.355Z,10.3569
2024-05-09T03:22:06.660Z,10.3517
2024-05-09T03:23:06.795Z,10.3903
2024-05-09T03:24:09.167Z,10.3970
2024-05-09T03:25:11.351Z,10.3553
2024-05-09T03:26:13.665Z,10.3199
2024-05-09T03:27:15.908Z,10.2734
2024-05-09T03:28:15.763Z,10.2573
2024-05-09T03:29:18.078Z,10.2892
2024-05-09T03:30:29.289Z,10.2996
2024-05-09T03:31:18.947Z,10.2644
2024-05-09T03:32:21.488Z,10.2978
2024-05-09T03:33:21.835Z,10.3205
2024-05-09T03:34:22.058Z,10.2666
2024-05-09T03:35:25.005Z,10.2486
2024-05-09T03:36:24.993Z,10.2427
2024-05-09T03:37:25.464Z,10.2323
2024-05-09T03:38:26.242Z,10.2375
2024-05-09T03:39:28.530Z,10.2200
2024-05-09T03:40:31.401Z,10.2380
2024-05-09T03:41:31.480Z,10.2427
2024-05-09T03:42:31.932Z,10.2290
2024-05-09T03:43:31.822Z,10.2542
2024-05-09T03:44:34.217Z,10.2602
2024-05-09T03:45:34.191Z,10.2323
2024-05-09T03:46:36.417Z,10.2277
2024-05-09T03:47:38.848Z,10.2335
2024-05-09T03:48:38.968Z,10.2402
2024-05-09T03:49:41.206Z,10.2629
2024-05-09T03:50:43.610Z,10.2367
2024-05-09T03:51:44.082Z,10.2396
2024-05-09T03:52:44.024Z,10.2497
2024-05-09T03:53:44.273Z,10.2107
2024-05-09T03:54:46.434Z,10.2151
2024-05-09T03:55:48.620Z,10.2484
2024-05-09T03:56:50.938Z,10.2636
2024-05-09T03:57:53.271Z,10.2507
2024-05-09T03:58:55.592Z,10.2338
2024-05-09T03:59:57.744Z,10.2146
2024-05-09T04:01:00.963Z,10.2333
2024-05-09T04:02:01.995Z,10.2450
2024-05-09T04:03:02.330Z,10.2678
2024-05-09T04:04:02.510Z,10.2791
2024-05-09T04:05:04.893Z,10.3056
2024-05-09T04:06:05.411Z,10.3091
2024-05-09T04:07:05.273Z,10.3246
2024-05-09T04:08:07.710Z,10.3106
2024-05-09T04:09:07.639Z,10.3553
2024-05-09T04:10:16.994Z,10.3602
2024-05-09T04:11:10.992Z,10.3327
2024-05-09T04:12:12.023Z,10.3144
2024-05-09T04:13:13.015Z,10.3507
2024-05-09T04:14:15.293Z,10.3381
2024-05-09T04:15:15.580Z,10.3562
2024-05-09T04:16:17.755Z,10.3602
2024-05-09T04:17:20.595Z,10.3375
2024-05-09T04:18:22.442Z,10.3443
2024-05-09T04:19:24.640Z,10.3368
2024-05-09T04:20:33.909Z,10.3843
2024-05-09T04:21:25.563Z,10.3993
2024-05-09T04:22:27.718Z,10.4369
2024-05-09T04:23:30.009Z,10.4635
2024-05-09T04:24:29.998Z,10.4393
2024-05-09T04:25:32.275Z,10.4062
2024-05-09T04:26:34.627Z,10.3789
2024-05-09T04:27:37.832Z,10.3923
2024-05-09T04:28:37.707Z,10.3838
2024-05-09T04:29:40.028Z,10.3845
2024-05-09T04:30:42.684Z,10.4089
2024-05-09T04:31:43.022Z,10.4016
2024-05-09T04:32:45.427Z,10.3777
2024-05-09T04:33:46.732Z,10.3876
2024-05-09T04:34:46.752Z,10.4182
2024-05-09T04:35:48.999Z,10.4204
2024-05-09T04:36:51.180Z,10.4149
2024-05-09T04:37:51.469Z,10.3943
2024-05-09T04:38:53.677Z,10.4300
2024-05-09T04:39:55.920Z,10.4394
2024-05-09T04:40:58.103Z,10.4281
2024-05-09T04:42:00.293Z,10.4564
2024-05-09T04:43:02.382Z,10.4386
2024-05-09T04:44:04.548Z,10.4300
2024-05-09T04:45:06.692Z,10.4562
2024-05-09T04:46:08.902Z,10.4527
2024-05-09T04:47:11.986Z,10.4444
2024-05-09T04:48:12.177Z,10.4746
2024-05-09T04:49:12.106Z,10.4810
2024-05-09T04:50:21.182Z,10.4828
2024-05-09T04:51:15.381Z,10.4875
2024-05-09T04:52:18.376Z,10.5073
2024-05-09T04:53:18.428Z,10.4585
2024-05-09T04:54:26.209Z,10.4796
2024-05-09T04:55:19.449Z,10.4731
2024-05-09T04:56:21.644Z,10.4587
2024-05-09T04:57:23.880Z,10.4230
2024-05-09T04:58:25.980Z,10.4602
2024-05-09T04:59:28.328Z,10.4794
2024-05-09T05:00:35.035Z,10.4664
2024-05-09T05:01:29.292Z,10.4833
2024-05-09T05:02:31.616Z,10.5142
2024-05-09T05:03:34.036Z,10.4845
2024-05-09T05:04:33.998Z,10.4807
2024-05-09T05:05:36.266Z,10.4971
2024-05-09T05:06:38.544Z,10.5381
2024-05-09T05:07:40.648Z,10.5827
2024-05-09T05:08:42.863Z,10.5595
2024-05-09T05:09:45.024Z,10.5410
2024-05-09T05:10:47.945Z,10.5904
2024-05-09T05:11:49.572Z,10.5996
2024-05-09T05:12:51.521Z,10.5873
2024-05-09T05:13:52.475Z,10.5595
2024-05-09T05:14:54.957Z,10.5406
2024-05-09T05:15:54.860Z,10.5230
2024-05-09T05:16:55.772Z,10.5455
2024-05-09T05:17:55.884Z,10.5694
2024-05-09T05:18:56.130Z,10.5557
2024-05-09T05:19:57.250Z,10.5912
2024-05-09T05:20:57.397Z,10.5741
2024-05-09T05:21:57.448Z,10.5769
2024-05-09T05:22:58.256Z,10.6147
2024-05-09T05:24:00.560Z,10.6222
2024-05-09T05:25:02.877Z,10.6345
2024-05-09T05:26:03.305Z,10.6611
2024-05-09T05:27:04.240Z,10.6718
2024-05-09T05:28:06.568Z,10.6608
2024-05-09T05:29:08.905Z,10.6458
2024-05-09T05:30:17.628Z,10.6529
2024-05-09T05:31:13.097Z,10.6843
2024-05-09T05:32:13.194Z,10.6617
2024-05-09T05:33:13.582Z,10.6391
2024-05-09T05:34:14.123Z,10.6234
2024-05-09T05:35:16.401Z,10.6283
2024-05-09T05:36:16.346Z,10.6089
2024-05-09T05:37:18.505Z,10.6265
2024-05-09T05:38:24.827Z,10.6292
2024-05-09T05:39:21.866Z,10.6288
2024-05-09T05:40:32.356Z,10.6143
2024-05-09T05:41:25.452Z,10.6263
2024-05-09T05:42:25.753Z,10.7174
2024-05-09T05:43:28.035Z,10.7365
2024-05-09T05:44:30.432Z,10.7160
2024-05-09T05:45:30.358Z,10.7122
2024-05-09T05:46:32.683Z,10.7751
2024-05-09T05:47:35.218Z,10.7779
2024-05-09T05:48:35.331Z,10.7651
2024-05-09T05:49:37.820Z,10.7327
2024-05-09T05:50:38.779Z,10.7150
2024-05-09T05:51:38.954Z,10.7340
2024-05-09T05:52:41.245Z,10.6969
2024-05-09T05:53:42.288Z,10.6923
2024-05-09T05:54:42.282Z,10.6646
2024-05-09T05:55:44.718Z,10.6876
2024-05-09T05:56:44.996Z,10.7459
2024-05-09T05:57:45.135Z,10.7727
2024-05-09T05:58:47.378Z,10.7631
2024-05-09T05:59:49.677Z,10.7359
2024-05-09T06:00:52.413Z,10.7760
2024-05-09T06:01:52.365Z,10.7367
2024-05-09T06:02:52.462Z,10.7237
2024-05-09T06:03:53.484Z,10.7016
2024-05-09T06:04:54.046Z,10.7228
2024-05-09T06:05:54.120Z,10.7400
2024-05-09T06:06:56.353Z,10.7318
2024-05-09T06:07:58.698Z,10.7371
2024-05-09T06:08:58.982Z,10.7498
2024-05-09T06:10:01.280Z,10.7821
2024-05-09T06:11:03.751Z,10.8152
2024-05-09T06:12:03.831Z,10.8272
2024-05-09T06:13:05.365Z,10.8806
2024-05-09T06:14:05.282Z,10.8616
2024-05-09T06:15:07.649Z,10.8833
2024-05-09T06:16:09.959Z,10.9718
2024-05-09T06:17:12.399Z,10.9990
2024-05-09T06:18:13.014Z,10.9615
2024-05-09T06:19:13.218Z,10.9838
2024-05-09T06:20:20.560Z,11.0230
2024-05-09T06:21:15.482Z,11.1099
2024-05-09T06:22:15.960Z,11.0810
2024-05-09T06:23:18.214Z,11.0951
2024-05-09T06:24:18.598Z,11.1470
2024-05-09T06:25:20.839Z,11.1907
2024-05-09T06:26:23.223Z,11.2399
2024-05-09T06:27:23.963Z,11.3720
2024-05-09T06:28:23.788Z,11.4858
2024-05-09T06:29:26.144Z,11.4042
2024-05-09T06:30:34.902Z,11.4391
2024-05-09T06:31:27.010Z,11.4661
2024-05-09T06:32:29.321Z,11.4787
2024-05-09T06:33:29.585Z,11.5060
2024-05-09T06:34:29.783Z,11.6398
2024-05-09T06:35:29.858Z,11.5912
2024-05-09T06:36:30.402Z,11.7175
2024-05-09T06:37:30.303Z,11.6895
2024-05-09T06:38:32.591Z,11.6698
2024-05-09T06:39:32.543Z,11.8269
2024-05-09T06:40:38.323Z,11.8119
2024-05-09T06:41:35.849Z,11.7821
2024-05-09T06:42:38.070Z,11.7500
2024-05-09T06:43:40.131Z,11.7650
2024-05-09T06:44:42.291Z,11.8074
2024-05-09T06:45:44.481Z,11.8307
2024-05-09T06:46:46.868Z,11.8569
2024-05-09T06:47:46.954Z,12.0006
2024-05-09T06:48:50.503Z,12.0944
2024-05-09T06:49:50.623Z,12.0138
2024-05-09T06:50:50.726Z,12.0795
2024-05-09T06:51:50.751Z,12.1785
2024-05-09T06:52:52.915Z,12.2723
2024-05-09T06:53:55.067Z,12.3219
2024-05-09T06:54:57.356Z,12.3331
2024-05-09T06:55:59.630Z,12.2747
2024-05-09T06:57:01.932Z,12.2956
2024-05-09T06:58:03.993Z,12.2678
2024-05-09T06:59:06.325Z,12.3462
2024-05-09T07:00:15.466Z,12.3447
2024-05-09T07:01:09.600Z,12.2184
2024-05-09T07:02:09.635Z,12.1234
2024-05-09T07:03:10.078Z,12.0730
2024-05-09T07:04:11.303Z,12.1276
2024-05-09T07:05:11.627Z,12.1357
2024-05-09T07:06:11.656Z,12.1556
2024-05-09T07:07:14.045Z,12.1688
2024-05-09T07:08:16.554Z,12.1080
2024-05-09T07:09:16.789Z,12.1371
2024-05-09T07:10:22.143Z,12.2010
2024-05-09T07:11:18.025Z,12.1643
2024-05-09T07:12:19.090Z,12.1722
2024-05-09T07:13:19.107Z,12.0583
2024-05-09T07:14:21.552Z,12.1313
2024-05-09T07:15:21.795Z,12.1441
2024-05-09T07:16:21.800Z,12.1614
2024-05-09T07:17:24.240Z,12.1272
2024-05-09T07:18:24.504Z,12.0878
2024-05-09T07:19:25.012Z,12.0350
2024-05-09T07:20:32.491Z,11.9748
2024-05-09T07:21:26.093Z,12.0111
2024-05-09T07:22:25.976Z,12.0667
2024-05-09T07:23:26.044Z,12.1988
2024-05-09T07:24:26.042Z,12.2563
2024-05-09T07:25:28.369Z,12.1736
2024-05-09T07:26:28.329Z,12.0815
2024-05-09T07:27:29.916Z,12.0927
2024-05-09T07:28:30.073Z,12.2363
2024-05-09T07:29:34.714Z,12.1903
2024-05-09T07:30:34.765Z,12.1850
2024-05-09T07:31:35.162Z,12.1148
2024-05-09T07:32:37.567Z,12.1998
2024-05-09T07:33:38.570Z,12.2189
2024-05-09T07:34:38.634Z,12.2050
2024-05-09T07:35:38.839Z,12.1843
2024-05-09T07:36:39.886Z,12.2671
2024-05-09T07:37:42.215Z,12.2924
2024-05-09T07:38:42.242Z,12.3115
2024-05-09T07:39:42.552Z,12.3679
2024-05-09T07:40:42.575Z,12.3587
2024-05-09T07:41:44.912Z,12.3214
2024-05-09T07:42:44.995Z,12.2210
2024-05-09T07:43:47.329Z,12.3005
2024-05-09T07:44:49.573Z,12.2657
2024-05-09T07:45:54.468Z,12.2001
2024-05-09T07:48:13.727Z,12.2069
2024-05-09T07:50:34.746Z,12.1858
2024-05-09T07:53:22.002Z,12.3398
2024-05-09T07:54:01.395Z,12.3563
2024-05-09T07:55:02.035Z,12.2911
2024-05-09T07:56:02.171Z,12.4553
2024-05-09T07:57:03.385Z,12.3938
2024-05-09T07:58:03.485Z,12.3930
2024-05-09T07:59:05.812Z,12.5508
2024-05-09T08:00:06.680Z,12.4504
2024-05-09T08:01:07.043Z,12.4296
2024-05-09T08:02:07.086Z,12.3975
2024-05-09T08:03:07.013Z,12.4004
2024-05-09T08:04:09.274Z,12.5526
2024-05-09T08:05:09.388Z,12.5891
2024-05-09T08:06:10.390Z,12.5461
2024-05-09T08:07:12.697Z,12.6212
2024-05-09T08:08:14.997Z,12.6635
2024-05-09T08:09:21.013Z,12.8583
2024-05-09T08:10:22.107Z,12.8791
2024-05-09T08:11:18.310Z,12.9566
2024-05-09T08:12:20.612Z,12.9325
2024-05-09T08:13:23.135Z,12.8381
2024-05-09T08:14:23.196Z,12.7561
2024-05-09T08:15:25.486Z,12.9343
2024-05-09T08:16:25.578Z,12.9703
2024-05-09T08:17:25.569Z,12.8310
2024-05-09T08:18:27.990Z,12.8557
2024-05-09T08:19:28.085Z,12.8527
2024-05-09T08:20:33.720Z,12.8081
2024-05-09T08:21:31.482Z,12.8292
2024-05-09T08:22:32.439Z,12.8344
2024-05-09T08:23:34.700Z,12.8344
2024-05-09T08:24:36.984Z,12.6567
2024-05-09T08:25:39.196Z,12.6339
2024-05-09T08:26:41.466Z,12.5823
2024-05-09T08:27:42.555Z,12.6529
2024-05-09T08:28:42.416Z,12.6358
2024-05-09T08:29:44.713Z,12.6176
2024-05-09T08:30:44.840Z,12.6027
2024-05-09T08:31:45.839Z,12.5898
2024-05-09T08:32:48.353Z,12.5891
2024-05-09T08:33:48.668Z,12.6067
2024-05-09T08:34:48.721Z,12.7580
2024-05-09T08:35:50.024Z,12.6903
2024-05-09T08:36:52.376Z,12.6398
2024-05-09T08:37:53.069Z,12.6622
2024-05-09T08:38:53.062Z,12.6912
2024-05-09T08:39:53.204Z,12.6904
2024-05-09T08:40:55.593Z,12.6618
2024-05-09T08:41:55.650Z,12.7356
2024-05-09T08:42:57.874Z,12.6645
2024-05-09T08:44:00.121Z,12.7922
2024-05-09T08:45:02.303Z,12.8905
2024-05-09T08:46:02.393Z,12.9836
2024-05-09T08:47:02.981Z,13.1775
2024-05-09T08:48:05.421Z,13.0979
2024-05-09T08:49:06.058Z,13.1271
2024-05-09T08:50:08.570Z,13.1559
2024-05-09T08:51:06.583Z,13.3530
2024-05-09T08:52:07.546Z,13.2065
2024-05-09T08:53:07.856Z,13.2307
2024-05-09T08:54:07.937Z,13.3440
2024-05-09T08:55:10.363Z,13.2876
2024-05-09T08:56:10.502Z,13.2736
2024-05-09T08:57:12.721Z,13.3171
2024-05-09T08:58:15.353Z,13.3306
2024-05-09T08:59:16.168Z,13.2587
2024-05-09T09:00:29.049Z,13.2160
2024-05-09T09:01:19.702Z,13.1978
2024-05-09T09:02:21.293Z,13.2865
2024-05-09T09:03:21.850Z,13.3699
2024-05-09T09:04:24.259Z,13.2827
2024-05-09T09:05:24.426Z,13.2244
2024-05-09T09:06:24.357Z,13.1874
2024-05-09T09:07:26.784Z,13.1656
2024-05-09T09:08:27.683Z,13.2094
2024-05-09T09:09:27.996Z,13.1546
2024-05-09T09:10:32.360Z,13.2309
2024-05-09T09:11:30.827Z,13.2330
2024-05-09T09:12:33.107Z,13.2137
2024-05-09T09:13:35.350Z,13.0867
2024-05-09T09:14:37.596Z,13.0431
2024-05-09T09:15:37.664Z,13.1162
2024-05-09T09:16:39.938Z,13.2163
2024-05-09T09:17:42.387Z,13.1598
2024-05-09T09:18:42.644Z,13.1674
2024-05-09T09:19:42.584Z,13.3345
2024-05-09T09:20:45.005Z,13.3646
2024-05-09T09:21:45.060Z,13.2315
2024-05-09T09:22:45.122Z,13.2409
2024-05-09T09:23:47.527Z,13.2508
2024-05-09T09:24:49.724Z,13.3389
2024-05-09T09:25:50.863Z,13.1989
2024-05-09T09:26:51.713Z,13.3413
2024-05-09T09:27:53.991Z,13.3719
2024-05-09T09:28:54.037Z,13.3903
2024-05-09T09:29:56.322Z,13.5492
2024-05-09T09:30:56.238Z,13.5505
2024-05-09T09:31:58.466Z,13.5887
2024-05-09T09:33:01.009Z,13.9183
2024-05-09T09:34:01.283Z,13.8434
2024-05-09T09:35:01.395Z,13.7262
2024-05-09T09:36:01.531Z,13.6260
2024-05-09T09:37:03.823Z,13.5864
2024-05-09T09:38:03.823Z,13.6085
2024-05-09T09:39:06.062Z,13.5514
2024-05-09T09:40:08.949Z,13.5536
2024-05-09T09:41:08.895Z,13.4505
2024-05-09T09:42:09.804Z,13.5317
2024-05-09T09:43:12.212Z,13.7915
2024-05-09T09:44:12.279Z,13.7278
2024-05-09T09:45:14.632Z,13.7956
2024-05-09T09:46:17.121Z,13.7909
2024-05-09T09:47:17.373Z,13.7405
2024-05-09T09:48:19.748Z,13.7789
2024-05-09T09:49:21.538Z,13.9552
2024-05-09T09:50:27.706Z,13.8947
2024-05-09T09:51:22.620Z,13.7642
2024-05-09T09:52:23.028Z,13.7870
2024-05-09T09:53:22.931Z,13.7929
2024-05-09T09:54:25.231Z,13.8168
2024-05-09T09:55:26.062Z,13.8571
2024-05-09T09:56:25.959Z,14.0716
2024-05-09T09:57:26.221Z,14.1242
2024-05-09T09:58:28.563Z,14.3081
2024-05-09T09:59:28.524Z,14.5561
2024-05-09T10:00:33.290Z,14.7245
2024-05-09T10:01:31.911Z,14.6514
2024-05-09T10:02:32.172Z,14.6365
2024-05-09T10:03:32.342Z,15.0081
2024-05-09T10:04:33.417Z,15.0053
2024-05-09T10:05:33.717Z,14.7527
2024-05-09T10:06:33.755Z,14.5608
2024-05-09T10:07:35.924Z,14.6113
2024-05-09T10:08:38.038Z,14.9828
2024-05-09T10:09:40.283Z,15.1499
2024-05-09T10:10:42.690Z,14.8968
2024-05-09T10:12:44.854Z,15.3155
2024-05-09T10:13:47.071Z,15.4296
2024-05-09T10:14:49.367Z,15.2741
2024-05-09T10:15:52.146Z,15.2746
2024-05-09T10:16:52.295Z,15.1515
2024-05-09T10:17:54.712Z,14.8894
2024-05-09T10:18:54.822Z,14.9563
2024-05-09T10:19:54.864Z,14.8698
2024-05-09T10:20:54.932Z,14.7286
2024-05-09T10:21:57.258Z,14.7079
2024-05-09T10:22:57.328Z,14.7896
2024-05-09T10:23:57.645Z,14.6607
2024-05-09T10:25:01.505Z,14.8594
2024-05-09T10:26:03.790Z,15.1061
2024-05-09T10:27:03.616Z,15.2240
2024-05-09T10:28:04.135Z,15.1560
2024-05-09T10:29:06.439Z,15.0935
2024-05-09T10:30:14.412Z,15.0820
2024-05-09T10:31:09.701Z,15.1442
2024-05-09T10:32:11.920Z,15.0746
2024-05-09T10:33:13.008Z,15.1303
2024-05-09T10:34:13.172Z,15.1166
2024-05-09T10:35:13.146Z,15.0940
2024-05-09T10:36:13.319Z,15.2545
2024-05-09T10:37:15.695Z,15.1995
2024-05-09T10:38:15.637Z,15.6432
2024-05-09T10:39:16.014Z,15.7996
2024-05-09T10:40:25.778Z,15.2673
2024-05-09T10:41:19.112Z,14.9192
2024-05-09T10:42:21.311Z,15.0676
2024-05-09T10:43:21.336Z,15.1530
2024-05-09T10:44:21.153Z,14.8404
2024-05-09T10:45:23.487Z,14.9233
2024-05-09T10:46:25.759Z,14.7391
2024-05-09T10:47:28.199Z,14.6579
2024-05-09T10:48:29.323Z,14.9571
2024-05-09T10:49:29.267Z,15.0248
2024-05-09T10:50:34.238Z,14.8255
2024-05-09T10:51:33.226Z,14.9884
2024-05-09T10:52:35.519Z,15.1187
2024-05-09T10:53:37.859Z,15.1731
2024-05-09T10:54:37.894Z,15.3288
2024-05-09T10:55:37.881Z,15.6610
2024-05-09T10:56:37.768Z,15.9359
2024-05-09T10:57:39.986Z,15.5630
2024-05-09T10:58:42.401Z,15.4867
2024-05-09T10:59:42.371Z,15.3835
2024-05-09T11:00:44.794Z,15.6169
2024-05-09T11:01:45.018Z,15.4612
2024-05-09T11:02:45.053Z,15.5165
2024-05-09T11:03:47.572Z,15.6112
2024-05-09T11:04:47.951Z,15.6677
2024-05-09T11:05:47.997Z,15.7475
2024-05-09T11:06:48.073Z,15.6089
2024-05-09T11:07:50.570Z,15.7833
2024-05-09T11:08:50.486Z,15.8250
2024-05-09T11:09:52.903Z,15.7259
2024-05-09T11:10:53.039Z,15.7524
2024-05-09T11:11:53.226Z,15.8152
2024-05-09T11:12:53.293Z,15.9488
2024-05-09T11:13:55.546Z,16.3114
2024-05-09T11:14:57.860Z,15.8949
2024-05-09T11:16:00.179Z,15.9299
2024-05-09T11:17:00.276Z,16.0918
2024-05-09T11:18:02.782Z,15.6909
2024-05-09T11:19:04.916Z,15.7873
2024-05-09T11:20:10.773Z,16.1884
2024-05-09T11:21:06.106Z,16.4933
2024-05-09T11:22:08.570Z,16.3679
2024-05-09T11:23:08.578Z,16.2939
2024-05-09T11:24:11.482Z,16.9425
2024-05-09T11:25:11.853Z,16.8283
2024-05-09T11:26:12.590Z,16.6161
2024-05-09T11:27:12.522Z,16.3438
2024-05-09T11:28:15.046Z,16.4656
2024-05-09T11:29:17.935Z,16.0996
2024-05-09T11:30:24.190Z,16.1177
2024-05-09T11:31:18.255Z,16.0609
2024-05-09T11:32:18.302Z,15.9992
2024-05-09T11:33:19.220Z,16.0406
2024-05-09T11:34:19.373Z,15.9347
2024-05-09T11:35:19.637Z,16.0010
2024-05-09T11:36:19.555Z,16.0122
2024-05-09T11:37:19.635Z,16.2783
2024-05-09T11:38:19.584Z,16.1209
2024-05-09T11:39:21.779Z,16.1651
2024-05-09T11:40:26.035Z,16.2397
2024-05-09T11:41:25.076Z,16.2283
2024-05-09T11:42:25.206Z,16.4905
2024-05-09T11:43:25.475Z,16.5060
2024-05-09T11:44:25.341Z,16.7406
2024-05-09T11:45:27.554Z,16.6454
2024-05-09T11:46:29.703Z,16.8836
2024-05-09T11:47:32.075Z,16.9609
2024-05-09T11:48:32.331Z,16.6300
2024-05-09T11:49:32.613Z,16.2229
2024-05-09T11:50:35.498Z,16.4566
2024-05-09T11:51:33.432Z,16.2470
2024-05-09T11:52:35.665Z,16.5763
2024-05-09T11:53:37.818Z,16.4925
2024-05-09T11:54:40.114Z,16.4365
2024-05-09T11:55:42.284Z,16.3860
2024-05-09T11:56:44.513Z,16.0989
2024-05-09T11:57:46.848Z,15.8974
2024-05-09T11:58:47.136Z,15.9007
2024-05-09T11:59:50.061Z,15.7665
2024-05-09T12:00:50.044Z,15.6760
2024-05-09T12:01:50.295Z,15.7210
2024-05-09T12:02:50.318Z,15.7867
2024-05-09T12:03:52.743Z,15.5404
2024-05-09T12:04:52.814Z,15.5575
2024-05-09T12:05:55.060Z,15.6925
2024-05-09T12:06:57.326Z,15.8036
2024-05-09T12:07:59.450Z,15.7901
2024-05-09T12:09:01.622Z,15.7808
2024-05-09T12:10:06.080Z,15.9053
2024-05-09T12:11:05.753Z,16.6129
2024-05-09T12:12:08.038Z,16.4803
2024-05-09T12:13:10.400Z,16.6934
2024-05-09T12:14:12.676Z,17.1147
2024-05-09T12:15:14.996Z,16.8885
2024-05-09T12:16:17.301Z,16.7346
2024-05-09T12:17:19.609Z,16.6174
2024-05-09T12:18:21.801Z,16.3908
2024-05-09T12:19:24.049Z,16.6108
2024-05-09T12:20:34.727Z,16.7507
2024-05-09T12:21:27.285Z,16.4084
2024-05-09T12:22:29.455Z,16.7674
2024-05-09T12:23:31.641Z,16.7409
2024-05-09T12:24:33.872Z,16.5788
2024-05-09T12:25:36.970Z,16.9838
2024-05-09T12:26:39.133Z,17.1781